ストックホルム/アーランダ の空港の天気 - METARとTAF

ストックホルム・アーランダ空港 ( ESSA / ARN ) - スウェーデン ストックホルム
飛行場実況気象(Metar)
観測時間04/25 09:20 CEST (04/25 07:20 UTC)
風向・風速南南東 4m/s
視程10km以上
天気現象
なし
気温15℃
湿度48%
気圧1019hPa
METARESSA 250720Z 15008KT CAVOK 15/04 Q1019 NOSIG
過去の天気等 Google飛行場航空写真 Wunderground天気予報

過去48時間のMETAR

飛行場予報(TAF)
発表時間: 4/25 07:30 CEST (4/25 05:30 UTC)
予報対象時間: 25日8時 CEST ~ 26日8時 CEST
風向・風速東 5m/s
視程10km以上
なし
25日12時 CEST ~ 25日18時 CEST に一時的に
風向・風速南東 6m/s 瞬間風速 11m/s
TAF ESSA 250530Z 2506/2606 08009KT CAVOK
TEMPO 2510/2516 14012G22KT